sensor_id;sensor_type;location;lat;lon;timestamp;temperature;humidity
39695;DHT22;25367;-35.352;149.036;2023-04-29T00:00:50;21.20;60.50
39695;DHT22;25367;-35.352;149.036;2023-04-29T00:03:19;21.30;60.50
39695;DHT22;25367;-35.352;149.036;2023-04-29T00:05:48;21.30;60.10
39695;DHT22;25367;-35.352;149.036;2023-04-29T00:08:22;21.20;60.10
39695;DHT22;25367;-35.352;149.036;2023-04-29T00:10:52;21.30;60.10
39695;DHT22;25367;-35.352;149.036;2023-04-29T00:13:22;21.30;60.00
39695;DHT22;25367;-35.352;149.036;2023-04-29T00:15:51;21.30;60.50
39695;DHT22;25367;-35.352;149.036;2023-04-29T00:18:21;21.30;60.20
39695;DHT22;25367;-35.352;149.036;2023-04-29T00:20:50;21.30;60.20
39695;DHT22;25367;-35.352;149.036;2023-04-29T00:23:30;21.30;60.40
39695;DHT22;25367;-35.352;149.036;2023-04-29T00:26:01;21.20;60.30
39695;DHT22;25367;-35.352;149.036;2023-04-29T00:28:30;21.20;60.60
39695;DHT22;25367;-35.352;149.036;2023-04-29T00:31:00;21.20;60.60
39695;DHT22;25367;-35.352;149.036;2023-04-29T00:33:29;21.20;60.70
39695;DHT22;25367;-35.352;149.036;2023-04-29T00:35:59;21.20;60.80
39695;DHT22;25367;-35.352;149.036;2023-04-29T00:38:32;21.20;60.80
39695;DHT22;25367;-35.352;149.036;2023-04-29T00:41:02;21.20;60.80
39695;DHT22;25367;-35.352;149.036;2023-04-29T00:43:31;21.20;60.90
39695;DHT22;25367;-35.352;149.036;2023-04-29T00:46:01;21.20;61.00
39695;DHT22;25367;-35.352;149.036;2023-04-29T00:48:30;21.20;60.90
39695;DHT22;25367;-35.352;149.036;2023-04-29T00:51:00;21.20;61.00
39695;DHT22;25367;-35.352;149.036;2023-04-29T00:53:33;21.20;61.10
39695;DHT22;25367;-35.352;149.036;2023-04-29T00:56:03;21.20;61.00
39695;DHT22;25367;-35.352;149.036;2023-04-29T00:58:33;21.20;61.10
39695;DHT22;25367;-35.352;149.036;2023-04-29T01:01:05;21.20;60.80
39695;DHT22;25367;-35.352;149.036;2023-04-29T01:03:35;21.20;60.60
39695;DHT22;25367;-35.352;149.036;2023-04-29T01:06:10;21.20;60.80
39695;DHT22;25367;-35.352;149.036;2023-04-29T01:08:51;21.20;60.80
39695;DHT22;25367;-35.352;149.036;2023-04-29T01:11:23;21.20;60.80
39695;DHT22;25367;-35.352;149.036;2023-04-29T01:13:59;21.10;60.10
39695;DHT22;25367;-35.352;149.036;2023-04-29T01:16:35;21.10;61.20
39695;DHT22;25367;-35.352;149.036;2023-04-29T01:19:19;21.20;61.20
39695;DHT22;25367;-35.352;149.036;2023-04-29T01:21:50;21.20;60.90
39695;DHT22;25367;-35.352;149.036;2023-04-29T01:24:23;21.20;61.30
39695;DHT22;25367;-35.352;149.036;2023-04-29T01:26:56;21.20;61.20
39695;DHT22;25367;-35.352;149.036;2023-04-29T01:29:54;21.20;61.10
39695;DHT22;25367;-35.352;149.036;2023-04-29T01:32:36;21.30;61.30
39695;DHT22;25367;-35.352;149.036;2023-04-29T01:35:18;21.30;61.20
39695;DHT22;25367;-35.352;149.036;2023-04-29T01:37:55;21.20;61.30
39695;DHT22;25367;-35.352;149.036;2023-04-29T01:40:36;21.30;61.30
39695;DHT22;25367;-35.352;149.036;2023-04-29T01:43:11;21.30;61.20
39695;DHT22;25367;-35.352;149.036;2023-04-29T01:45:46;21.30;61.50
39695;DHT22;25367;-35.352;149.036;2023-04-29T01:48:18;21.30;61.40
39695;DHT22;25367;-35.352;149.036;2023-04-29T01:50:48;21.30;61.50
39695;DHT22;25367;-35.352;149.036;2023-04-29T01:53:18;21.30;61.40
39695;DHT22;25367;-35.352;149.036;2023-04-29T01:55:51;21.30;61.30
39695;DHT22;25367;-35.352;149.036;2023-04-29T01:58:53;21.30;61.30
39695;DHT22;25367;-35.352;149.036;2023-04-29T02:01:38;21.30;61.50
39695;DHT22;25367;-35.352;149.036;2023-04-29T02:04:08;21.30;61.50
39695;DHT22;25367;-35.352;149.036;2023-04-29T02:06:39;21.30;62.20
39695;DHT22;25367;-35.352;149.036;2023-04-29T02:09:08;21.30;61.50
39695;DHT22;25367;-35.352;149.036;2023-04-29T02:11:41;21.30;61.40
39695;DHT22;25367;-35.352;149.036;2023-04-29T02:14:11;21.30;61.30
39695;DHT22;25367;-35.352;149.036;2023-04-29T02:16:43;21.30;61.40
39695;DHT22;25367;-35.352;149.036;2023-04-29T02:19:13;21.30;61.60
39695;DHT22;25367;-35.352;149.036;2023-04-29T02:21:42;21.30;61.40
39695;DHT22;25367;-35.352;149.036;2023-04-29T02:24:12;21.30;61.40
39695;DHT22;25367;-35.352;149.036;2023-04-29T02:26:45;21.30;61.40
39695;DHT22;25367;-35.352;149.036;2023-04-29T02:29:14;21.30;61.50
39695;DHT22;25367;-35.352;149.036;2023-04-29T10:50:08;19.90;63.00
39695;DHT22;25367;-35.352;149.036;2023-04-29T10:52:52;19.90;65.20
39695;DHT22;25367;-35.352;149.036;2023-04-29T10:55:24;20.10;64.80
39695;DHT22;25367;-35.352;149.036;2023-04-29T10:57:53;20.30;65.40
39695;DHT22;25367;-35.352;149.036;2023-04-29T11:00:25;20.40;65.30
39695;DHT22;25367;-35.352;149.036;2023-04-29T11:02:55;20.50;65.20
39695;DHT22;25367;-35.352;149.036;2023-04-29T11:05:33;20.60;65.10
39695;DHT22;25367;-35.352;149.036;2023-04-29T11:08:11;20.70;64.80
39695;DHT22;25367;-35.352;149.036;2023-04-29T11:10:42;20.80;64.60
39695;DHT22;25367;-35.352;149.036;2023-04-29T11:13:24;20.80;64.70
39695;DHT22;25367;-35.352;149.036;2023-04-29T11:15:59;20.90;64.30
39695;DHT22;25367;-35.352;149.036;2023-04-29T11:18:31;20.90;64.70
39695;DHT22;25367;-35.352;149.036;2023-04-29T11:21:17;20.90;64.70
39695;DHT22;25367;-35.352;149.036;2023-04-29T11:23:48;21.00;63.90
39695;DHT22;25367;-35.352;149.036;2023-04-29T11:26:20;21.00;64.10
39695;DHT22;25367;-35.352;149.036;2023-04-29T11:28:51;21.10;64.10
39695;DHT22;25367;-35.352;149.036;2023-04-29T11:31:22;21.10;64.00
39695;DHT22;25367;-35.352;149.036;2023-04-29T11:33:53;21.10;63.90
39695;DHT22;25367;-35.352;149.036;2023-04-29T11:36:24;21.10;63.20
39695;DHT22;25367;-35.352;149.036;2023-04-29T11:38:53;21.10;64.00
39695;DHT22;25367;-35.352;149.036;2023-04-29T11:41:23;21.20;63.70
39695;DHT22;25367;-35.352;149.036;2023-04-29T11:43:55;21.30;63.50
39695;DHT22;25367;-35.352;149.036;2023-04-29T11:46:25;21.30;63.30
